Time;durP1;ratioP1;P1;durP2;ratioP2;P2;SDS_P1;SDS_P2;PMS_P1;PMS_P2;Temp;Humidity;BMP_temperature;BMP_pressure;BME280_temperature;BME280_humidity;BME280_pressure;Samples;Min_cycle;Max_cycle;Signal;HPM_P1;HPM_P2
2023/12/24 00:00:19;;;;;;;1.97;1.10;;;7.90;99.90;;;;;;5032385;28;20206;-39
2023/12/24 00:02:45;;;;;;;1.30;1.10;;;7.90;99.90;;;;;;5055217;28;20204;-34
2023/12/24 00:05:10;;;;;;;0.70;0.70;;;8.00;99.90;;;;;;5043377;28;20219;-38
2023/12/24 00:07:36;;;;;;;1.73;1.00;;;8.00;99.90;;;;;;5043291;28;20185;-41
2023/12/24 00:10:02;;;;;;;0.53;0.53;;;8.00;99.90;;;;;;5024877;28;20173;-42
2023/12/24 00:12:28;;;;;;;1.80;0.57;;;8.00;99.90;;;;;;5028700;28;20226;-38
2023/12/24 00:14:54;;;;;;;0.60;0.60;;;8.00;99.90;;;;;;5028692;28;20295;-37
2023/12/24 00:17:20;;;;;;;1.10;0.90;;;8.00;99.90;;;;;;5043810;28;20243;-39
2023/12/24 00:19:46;;;;;;;0.50;0.47;;;8.00;99.90;;;;;;5044423;28;20181;-38
2023/12/24 00:22:12;;;;;;;0.60;0.60;;;8.00;99.90;;;;;;5033870;28;20212;-35
2023/12/24 00:24:37;;;;;;;1.00;0.80;;;8.00;99.90;;;;;;5034438;28;20265;-41
2023/12/24 00:27:03;;;;;;;1.13;0.90;;;8.10;99.90;;;;;;5027779;28;20231;-41
2023/12/24 00:29:29;;;;;;;1.13;0.97;;;8.10;99.90;;;;;;5024853;28;20174;-40
2023/12/24 00:31:55;;;;;;;0.83;0.70;;;8.10;99.90;;;;;;5034331;28;20233;-40
2023/12/24 00:34:21;;;;;;;1.63;0.80;;;8.00;99.90;;;;;;5026822;28;20186;-37
2023/12/24 00:36:47;;;;;;;2.10;0.87;;;8.10;99.90;;;;;;5041689;28;20181;-37
2023/12/24 00:39:13;;;;;;;0.87;0.60;;;8.10;99.90;;;;;;5023771;28;20196;-37
2023/12/24 00:41:39;;;;;;;1.13;0.83;;;8.10;99.90;;;;;;5019524;28;20205;-48
2023/12/24 00:44:05;;;;;;;2.80;1.57;;;8.20;99.90;;;;;;5040387;28;20194;-40
2023/12/24 00:46:31;;;;;;;1.77;1.10;;;8.10;99.90;;;;;;5039142;28;20216;-38
2023/12/24 00:48:57;;;;;;;1.67;1.03;;;8.10;99.90;;;;;;5031854;28;20174;-39
2023/12/24 00:51:23;;;;;;;2.67;1.50;;;8.10;99.90;;;;;;5024770;28;20201;-40
2023/12/24 00:53:49;;;;;;;0.60;0.60;;;8.10;99.90;;;;;;5036346;28;20201;-38
2023/12/24 00:56:15;;;;;;;0.73;0.50;;;8.10;99.90;;;;;;5024229;28;20205;-36
2023/12/24 00:58:41;;;;;;;1.63;0.87;;;8.10;99.90;;;;;;5033022;28;20252;-37
2023/12/24 01:01:06;;;;;;;1.60;0.60;;;8.10;99.90;;;;;;5021600;28;20240;-38
2023/12/24 01:03:33;;;;;;;1.40;0.80;;;8.20;99.90;;;;;;5038947;28;20264;-39
2023/12/24 01:05:59;;;;;;;0.90;0.70;;;8.20;99.90;;;;;;5042133;28;20197;-37
2023/12/24 01:08:25;;;;;;;0.80;0.70;;;8.20;99.90;;;;;;5028848;28;20174;-38
2023/12/24 01:10:50;;;;;;;2.10;1.10;;;8.20;99.90;;;;;;5028915;28;20191;-39
2023/12/24 01:13:19;;;;;;;2.30;1.03;;;8.20;99.90;;;;;;5043386;28;20198;-36
2023/12/24 01:15:46;;;;;;;3.80;0.80;;;8.20;99.90;;;;;;5028800;28;20186;-39
2023/12/24 01:18:13;;;;;;;0.70;0.60;;;8.30;99.90;;;;;;5024771;28;20181;-38
2023/12/24 01:20:39;;;;;;;0.60;0.60;;;8.20;99.90;;;;;;5019927;28;20207;-36
2023/12/24 01:23:05;;;;;;;1.33;0.60;;;8.20;99.90;;;;;;5031081;28;20236;-39
2023/12/24 01:25:31;;;;;;;1.00;0.50;;;8.30;99.90;;;;;;5034836;28;20462;-37
2023/12/24 01:27:57;;;;;;;0.83;0.53;;;8.30;99.90;;;;;;5030295;28;20207;-42
2023/12/24 01:30:23;;;;;;;0.43;0.43;;;8.20;99.90;;;;;;5038520;28;20174;-36
2023/12/24 01:32:49;;;;;;;1.40;0.40;;;8.20;99.90;;;;;;5027620;28;20201;-42
2023/12/24 01:35:14;;;;;;;0.93;0.50;;;8.20;99.90;;;;;;5045526;28;20181;-41
2023/12/24 01:37:40;;;;;;;1.47;0.70;;;8.20;99.90;;;;;;5028602;28;20177;-42
2023/12/24 01:40:07;;;;;;;0.73;0.50;;;8.20;99.90;;;;;;5032378;28;20170;-40
2023/12/24 01:42:33;;;;;;;0.50;0.50;;;8.20;99.90;;;;;;5032721;28;20198;-37
2023/12/24 01:44:59;;;;;;;0.50;0.47;;;8.20;99.90;;;;;;5020528;28;20204;-38
2023/12/24 01:47:25;;;;;;;2.03;0.60;;;8.20;99.90;;;;;;5034575;28;20202;-38
2023/12/24 01:49:52;;;;;;;0.60;0.50;;;8.20;99.90;;;;;;5026762;28;20173;-39
2023/12/24 01:52:18;;;;;;;0.90;0.73;;;8.20;99.90;;;;;;5035476;28;20201;-40
2023/12/24 01:54:48;;;;;;;1.53;0.60;;;8.20;99.90;;;;;;5061018;28;20178;-37
2023/12/24 01:57:15;;;;;;;1.07;0.60;;;8.20;99.90;;;;;;5031463;28;20205;-38
2023/12/24 01:59:41;;;;;;;0.50;0.50;;;8.20;99.90;;;;;;5036095;28;20196;-39
2023/12/24 02:02:09;;;;;;;1.33;0.60;;;8.20;99.90;;;;;;5021866;28;20205;-41
2023/12/24 02:04:35;;;;;;;0.83;0.70;;;8.20;99.90;;;;;;5044787;28;20177;-38
2023/12/24 02:07:02;;;;;;;0.50;0.50;;;8.20;99.90;;;;;;5038388;28;20296;-41
2023/12/24 02:09:28;;;;;;;0.50;0.50;;;8.20;99.90;;;;;;5032265;28;20174;-37
2023/12/24 02:11:54;;;;;;;0.50;0.50;;;8.20;99.90;;;;;;5026288;28;20193;-39
2023/12/24 02:14:20;;;;;;;1.87;0.60;;;8.10;99.90;;;;;;5023459;28;20181;-38
2023/12/24 02:16:47;;;;;;;0.50;0.50;;;8.20;99.90;;;;;;5035234;28;20185;-37
2023/12/24 02:19:21;;;;;;;0.57;0.50;;;8.10;99.90;;;;;;5037587;28;20173;-38
2023/12/24 02:21:47;;;;;;;2.30;0.50;;;8.10;99.90;;;;;;5036346;28;20438;-41
2023/12/24 02:24:15;;;;;;;2.60;0.70;;;8.20;99.90;;;;;;5022493;28;20181;-35
2023/12/24 02:26:50;;;;;;;0.77;0.67;;;8.10;99.90;;;;;;5031380;28;20201;-37
2023/12/24 02:29:44;;;;;;;0.50;0.50;;;8.10;99.90;;;;;;5036017;28;20173;-38
2023/12/24 02:32:15;;;;;;;0.70;0.60;;;8.20;99.90;;;;;;5022929;28;20240;-42
2023/12/24 02:34:47;;;;;;;1.37;0.50;;;8.20;99.90;;;;;;5057922;28;20178;-36
2023/12/24 02:37:14;;;;;;;0.53;0.50;;;8.10;99.90;;;;;;5023820;28;20182;-37
2023/12/24 02:39:41;;;;;;;0.50;0.50;;;8.10;99.90;;;;;;5032974;28;20224;-37
2023/12/24 02:42:08;;;;;;;0.80;0.70;;;8.10;99.90;;;;;;5029575;28;20365;-37
2023/12/24 02:44:36;;;;;;;0.63;0.60;;;8.10;99.90;;;;;;5034239;28;20285;-37
2023/12/24 02:47:02;;;;;;;0.80;0.70;;;8.10;99.90;;;;;;5020658;28;20217;-38
2023/12/24 02:49:28;;;;;;;0.70;0.70;;;8.10;99.90;;;;;;5037231;28;20208;-41
2023/12/24 02:51:54;;;;;;;0.50;0.50;;;8.20;99.90;;;;;;5033420;28;20233;-40
2023/12/24 02:54:19;;;;;;;0.50;0.50;;;8.10;99.90;;;;;;5045106;28;20181;-41
2023/12/24 02:56:45;;;;;;;1.03;0.67;;;8.20;99.90;;;;;;5022621;28;20185;-36
2023/12/24 02:59:11;;;;;;;0.97;0.60;;;8.10;99.90;;;;;;5049172;28;20186;-34
2023/12/24 03:01:37;;;;;;;1.80;0.70;;;8.20;99.90;;;;;;5046032;28;20208;-36
2023/12/24 03:04:03;;;;;;;0.50;0.50;;;8.10;99.90;;;;;;5035511;28;20210;-39
2023/12/24 03:06:29;;;;;;;0.57;0.57;;;8.10;99.90;;;;;;5035626;28;20222;-35
2023/12/24 03:08:55;;;;;;;1.10;0.67;;;8.10;99.90;;;;;;5043887;28;20653;-37
2023/12/24 03:11:21;;;;;;;1.40;0.70;;;8.10;99.90;;;;;;5031952;28;20201;-44
2023/12/24 03:13:47;;;;;;;0.57;0.50;;;8.10;99.90;;;;;;5046186;28;20180;-36
2023/12/24 03:16:13;;;;;;;1.30;0.70;;;8.20;99.90;;;;;;5027172;28;20186;-38
2023/12/24 03:18:39;;;;;;;2.03;0.80;;;8.20;99.90;;;;;;5033787;28;20268;-36
2023/12/24 03:21:05;;;;;;;0.60;0.60;;;8.10;99.90;;;;;;5042987;28;20235;-36
2023/12/24 03:23:31;;;;;;;0.90;0.90;;;8.10;99.90;;;;;;5038765;28;20178;-37
2023/12/24 03:25:57;;;;;;;1.30;0.70;;;8.10;99.90;;;;;;5033270;28;20213;-37
2023/12/24 03:28:23;;;;;;;1.67;0.67;;;8.10;99.90;;;;;;5038653;28;20197;-41
2023/12/24 03:30:49;;;;;;;0.87;0.80;;;8.20;99.90;;;;;;5045800;28;20208;-41
2023/12/24 03:33:15;;;;;;;1.07;0.70;;;8.20;99.90;;;;;;5018841;28;20661;-42
2023/12/24 03:35:43;;;;;;;0.70;0.70;;;8.10;99.90;;;;;;5034626;28;20182;-37
2023/12/24 03:38:09;;;;;;;0.67;0.60;;;8.20;99.90;;;;;;5034944;28;20189;-36
2023/12/24 03:40:34;;;;;;;0.70;0.70;;;8.20;99.90;;;;;;5029033;28;20182;-36
2023/12/24 03:43:00;;;;;;;0.70;0.70;;;8.20;99.90;;;;;;5047485;28;20731;-34
2023/12/24 03:45:26;;;;;;;1.07;0.80;;;8.10;99.90;;;;;;5034416;28;20214;-36
2023/12/24 03:47:53;;;;;;;1.40;0.80;;;8.20;99.90;;;;;;5043569;28;20182;-38
2023/12/24 03:50:19;;;;;;;0.90;0.70;;;8.10;99.90;;;;;;5031029;28;20269;-37
2023/12/24 03:52:45;;;;;;;0.73;0.67;;;8.10;99.90;;;;;;5037828;28;20284;-36
2023/12/24 03:55:11;;;;;;;1.30;0.80;;;8.10;99.90;;;;;;5050946;28;20685;-38
2023/12/24 03:57:36;;;;;;;1.23;0.80;;;8.10;99.90;;;;;;5025901;28;20177;-39
2023/12/24 04:00:03;;;;;;;0.83;0.70;;;8.10;99.90;;;;;;5047237;28;20328;-37
2023/12/24 04:02:30;;;;;;;1.00;0.87;;;8.10;99.90;;;;;;5059409;28;20235;-39
2023/12/24 04:04:56;;;;;;;1.27;0.70;;;8.10;99.90;;;;;;5034322;28;20217;-37
2023/12/24 04:07:22;;;;;;;2.20;0.90;;;8.10;99.90;;;;;;5034052;28;20206;-35
2023/12/24 04:09:48;;;;;;;0.80;0.80;;;8.10;99.90;;;;;;5025505;28;20217;-47
2023/12/24 04:12:13;;;;;;;1.13;0.70;;;8.10;99.90;;;;;;5021488;28;20244;-38
2023/12/24 04:14:39;;;;;;;2.10;0.80;;;8.10;99.90;;;;;;5020059;28;20181;-37
2023/12/24 04:17:06;;;;;;;0.70;0.70;;;8.10;99.90;;;;;;5032853;28;20211;-38
2023/12/24 04:19:32;;;;;;;0.80;0.80;;;8.10;99.90;;;;;;5028096;28;20186;-40
2023/12/24 04:21:58;;;;;;;0.60;0.60;;;8.10;99.90;;;;;;5044530;28;20205;-37
2023/12/24 04:24:25;;;;;;;0.90;0.70;;;8.10;99.90;;;;;;5029522;28;20180;-36
2023/12/24 04:26:52;;;;;;;1.17;0.60;;;8.10;99.90;;;;;;5032291;28;20375;-37
2023/12/24 04:29:18;;;;;;;1.37;0.70;;;8.20;99.90;;;;;;5032298;28;20174;-35
2023/12/24 04:31:44;;;;;;;0.80;0.73;;;8.20;99.90;;;;;;5026298;28;20224;-38
2023/12/24 04:34:10;;;;;;;1.27;1.00;;;8.10;99.90;;;;;;5027531;28;20181;-39
2023/12/24 04:36:36;;;;;;;0.60;0.60;;;8.10;99.90;;;;;;5046742;28;20220;-41
2023/12/24 04:39:02;;;;;;;0.90;0.60;;;8.10;99.90;;;;;;5037475;28;20268;-39
2023/12/24 04:41:28;;;;;;;0.70;0.70;;;8.10;99.90;;;;;;5040819;28;20209;-39
2023/12/24 04:43:55;;;;;;;0.87;0.60;;;8.10;99.90;;;;;;5028719;28;20193;-36
2023/12/24 04:46:21;;;;;;;0.77;0.70;;;8.20;99.90;;;;;;5018025;28;20210;-34
2023/12/24 04:48:48;;;;;;;0.90;0.73;;;8.20;99.90;;;;;;5039659;28;20177;-41
2023/12/24 04:51:15;;;;;;;1.07;0.80;;;8.20;99.90;;;;;;5038007;28;20173;-39
2023/12/24 04:53:41;;;;;;;1.13;0.80;;;8.20;99.90;;;;;;5024619;28;20178;-37
2023/12/24 04:56:19;;;;;;;1.17;0.73;;;8.20;99.90;;;;;;5023367;28;20185;-36
2023/12/24 04:58:45;;;;;;;0.97;0.83;;;8.10;99.90;;;;;;5030439;28;20188;-38
2023/12/24 05:01:11;;;;;;;0.97;0.87;;;8.10;99.90;;;;;;5018369;28;20182;-36
2023/12/24 05:03:36;;;;;;;0.90;0.83;;;8.20;99.90;;;;;;5033194;28;20181;-38
2023/12/24 05:06:02;;;;;;;1.23;0.90;;;8.10;99.90;;;;;;5034225;28;20262;-36
2023/12/24 05:08:28;;;;;;;0.70;0.70;;;8.10;99.90;;;;;;5034925;28;20178;-37
2023/12/24 05:10:54;;;;;;;1.37;0.80;;;8.10;99.90;;;;;;5032528;28;20177;-40
2023/12/24 05:13:21;;;;;;;0.73;0.63;;;8.10;99.90;;;;;;5027144;28;20193;-39
2023/12/24 05:15:47;;;;;;;1.33;0.80;;;8.10;99.90;;;;;;5025006;28;20186;-41
2023/12/24 05:18:13;;;;;;;0.93;0.63;;;8.10;99.90;;;;;;5041380;28;20177;-41
2023/12/24 05:20:39;;;;;;;1.37;0.60;;;8.10;99.90;;;;;;5026712;28;20182;-40
2023/12/24 05:23:04;;;;;;;1.30;0.80;;;8.10;99.90;;;;;;5040559;28;20205;-44
2023/12/24 05:25:30;;;;;;;0.67;0.67;;;8.10;99.90;;;;;;5030961;28;20646;-44
2023/12/24 05:27:56;;;;;;;0.73;0.60;;;8.10;99.90;;;;;;5038955;28;20184;-44
2023/12/24 05:30:22;;;;;;;0.87;0.70;;;8.10;99.90;;;;;;5018442;28;20183;-44
2023/12/24 05:32:48;;;;;;;1.00;0.60;;;8.10;99.90;;;;;;5031409;28;20201;-43
2023/12/24 05:35:14;;;;;;;0.60;0.60;;;8.10;99.90;;;;;;5025229;28;20200;-43
2023/12/24 05:37:39;;;;;;;2.00;0.60;;;8.10;99.90;;;;;;5035678;28;20178;-44
2023/12/24 05:40:06;;;;;;;0.60;0.60;;;8.20;99.90;;;;;;5045616;28;20220;-43
2023/12/24 05:42:32;;;;;;;1.00;0.80;;;8.20;99.90;;;;;;5021280;28;20239;-44
2023/12/24 05:44:57;;;;;;;0.70;0.60;;;8.20;99.90;;;;;;5028894;28;20224;-42
2023/12/24 05:47:23;;;;;;;0.70;0.70;;;8.20;99.90;;;;;;5026302;28;20206;-43
2023/12/24 05:49:49;;;;;;;0.60;0.60;;;8.10;99.90;;;;;;5039723;28;20195;-44
2023/12/24 05:52:15;;;;;;;2.97;0.67;;;8.20;99.90;;;;;;5037406;28;20193;-41
2023/12/24 05:54:41;;;;;;;1.63;0.57;;;8.20;99.90;;;;;;5028549;28;20203;-44
2023/12/24 05:57:07;;;;;;;0.83;0.73;;;8.20;99.90;;;;;;5029404;28;20190;-44
2023/12/24 05:59:33;;;;;;;0.60;0.60;;;8.20;99.90;;;;;;5057045;28;20224;-43
2023/12/24 06:01:58;;;;;;;0.50;0.50;;;8.30;99.90;;;;;;5032333;28;20193;-42
2023/12/24 06:04:24;;;;;;;1.23;0.60;;;8.30;99.90;;;;;;5037361;28;20276;-44
2023/12/24 06:06:50;;;;;;;0.60;0.60;;;8.30;99.90;;;;;;5023649;28;20219;-43
2023/12/24 06:09:16;;;;;;;1.17;0.60;;;8.20;99.90;;;;;;5060149;28;20178;-44
2023/12/24 06:11:42;;;;;;;1.30;0.70;;;8.30;99.90;;;;;;5027065;28;20200;-44
2023/12/24 06:14:07;;;;;;;0.60;0.60;;;8.30;99.90;;;;;;5017097;28;20182;-43
2023/12/24 06:16:33;;;;;;;1.20;0.57;;;8.30;99.90;;;;;;5067365;28;20217;-44
2023/12/24 06:18:59;;;;;;;2.33;0.60;;;8.40;99.90;;;;;;5024004;28;20177;-44
2023/12/24 06:21:25;;;;;;;2.00;1.10;;;8.40;99.90;;;;;;5034442;28;20241;-43
2023/12/24 06:23:52;;;;;;;2.17;0.60;;;8.40;99.90;;;;;;5039100;28;20189;-44
2023/12/24 06:26:18;;;;;;;0.67;0.67;;;8.40;99.90;;;;;;5035833;28;20212;-43
2023/12/24 06:28:44;;;;;;;0.70;0.70;;;8.40;99.90;;;;;;5044589;28;20264;-43
2023/12/24 06:31:10;;;;;;;1.20;1.00;;;8.40;99.90;;;;;;5043223;28;20332;-44
2023/12/24 06:33:35;;;;;;;0.50;0.50;;;8.40;99.90;;;;;;5040467;28;20271;-43
2023/12/24 06:36:01;;;;;;;1.63;0.70;;;8.40;99.90;;;;;;5033676;28;20186;-42
2023/12/24 06:38:27;;;;;;;0.77;0.77;;;8.50;99.90;;;;;;5036021;28;20190;-44
2023/12/24 06:40:53;;;;;;;1.20;1.10;;;8.40;99.90;;;;;;5042091;28;20192;-41
2023/12/24 06:43:18;;;;;;;1.00;0.80;;;8.50;99.90;;;;;;5035489;28;20221;-43
2023/12/24 06:45:44;;;;;;;0.90;0.90;;;8.50;99.90;;;;;;5048960;28;20205;-44
2023/12/24 06:48:10;;;;;;;0.60;0.60;;;8.60;99.90;;;;;;5035215;28;20247;-38
2023/12/24 06:50:36;;;;;;;0.50;0.50;;;8.60;99.90;;;;;;5031670;28;20177;-37
2023/12/24 06:53:05;;;;;;;1.50;1.07;;;8.60;99.90;;;;;;5041697;28;20198;-36
2023/12/24 06:55:31;;;;;;;0.80;0.70;;;8.60;99.90;;;;;;5044492;28;20184;-37
2023/12/24 06:57:57;;;;;;;0.93;0.80;;;8.60;99.90;;;;;;5044392;28;20182;-36
2023/12/24 07:00:23;;;;;;;1.23;0.93;;;8.60;99.90;;;;;;5046373;28;20186;-40
2023/12/24 07:02:49;;;;;;;1.10;1.00;;;8.60;99.90;;;;;;5061380;28;20198;-39
2023/12/24 07:05:15;;;;;;;0.80;0.60;;;8.60;99.90;;;;;;5036611;28;20188;-36
2023/12/24 07:07:41;;;;;;;1.33;0.73;;;8.70;99.90;;;;;;5026558;28;20216;-41
2023/12/24 07:10:07;;;;;;;0.60;0.60;;;8.70;99.90;;;;;;5041297;28;20250;-38
2023/12/24 07:12:32;;;;;;;0.67;0.67;;;8.70;99.90;;;;;;5034564;28;20225;-37
2023/12/24 07:14:58;;;;;;;0.47;0.47;;;8.70;99.90;;;;;;5042873;28;20213;-40
2023/12/24 07:17:24;;;;;;;0.60;0.60;;;8.80;99.90;;;;;;5044838;28;20185;-41
2023/12/24 07:19:50;;;;;;;0.57;0.50;;;8.70;99.90;;;;;;5039928;28;20249;-40
2023/12/24 07:22:17;;;;;;;1.10;1.00;;;8.70;99.90;;;;;;5035697;28;20323;-41
2023/12/24 07:24:43;;;;;;;0.60;0.60;;;8.70;99.90;;;;;;5031427;28;20177;-39
2023/12/24 07:27:09;;;;;;;0.40;0.40;;;8.80;99.90;;;;;;5038727;28;20239;-41
2023/12/24 07:29:35;;;;;;;0.43;0.33;;;8.80;99.90;;;;;;5058768;28;20182;-38
2023/12/24 07:32:00;;;;;;;0.50;0.50;;;8.80;99.90;;;;;;5041176;28;20285;-41
2023/12/24 07:34:26;;;;;;;1.60;0.50;;;8.80;99.90;;;;;;5048073;28;20649;-41
2023/12/24 07:36:52;;;;;;;1.83;1.63;;;8.80;99.90;;;;;;5055755;28;20263;-37
2023/12/24 07:39:18;;;;;;;4.13;2.70;;;8.80;99.90;;;;;;5024601;28;20215;-38
2023/12/24 07:41:44;;;;;;;1.90;1.40;;;8.80;99.90;;;;;;5040153;28;20208;-39
2023/12/24 07:44:11;;;;;;;4.80;3.63;;;8.70;99.90;;;;;;5028772;28;20189;-42
2023/12/24 07:46:38;;;;;;;6.07;4.37;;;8.70;99.90;;;;;;5031438;28;20212;-42
2023/12/24 07:49:04;;;;;;;6.20;3.83;;;8.70;99.90;;;;;;5028738;28;20183;-38
2023/12/24 07:51:31;;;;;;;3.37;2.03;;;8.70;99.90;;;;;;5022499;28;20213;-40
2023/12/24 07:53:58;;;;;;;4.87;3.43;;;8.70;99.90;;;;;;5036998;28;20187;-38
2023/12/24 07:56:24;;;;;;;4.30;2.63;;;8.70;99.90;;;;;;5020313;28;20182;-38
2023/12/24 07:58:50;;;;;;;2.17;1.47;;;8.70;99.90;;;;;;5027553;28;20201;-39
2023/12/24 08:01:16;;;;;;;1.00;0.90;;;8.70;99.90;;;;;;5035686;28;20201;-38
2023/12/24 08:03:41;;;;;;;0.80;0.80;;;8.70;99.90;;;;;;5059439;28;20178;-38
2023/12/24 08:06:07;;;;;;;0.60;0.40;;;8.70;99.90;;;;;;5038872;28;20204;-38
2023/12/24 08:08:33;;;;;;;0.37;0.37;;;8.70;99.90;;;;;;5043722;28;20273;-38
2023/12/24 08:10:59;;;;;;;0.40;0.40;;;8.80;99.90;;;;;;5042340;28;20209;-38
2023/12/24 08:13:25;;;;;;;1.13;0.40;;;8.80;99.90;;;;;;5044701;28;20268;-41
2023/12/24 08:15:50;;;;;;;0.43;0.43;;;8.90;99.90;;;;;;5025518;28;20214;-34
2023/12/24 08:18:16;;;;;;;0.40;0.40;;;8.80;99.90;;;;;;5019622;28;20271;-42
2023/12/24 08:20:42;;;;;;;0.50;0.50;;;9.00;99.90;;;;;;5047185;28;20190;-44
2023/12/24 08:23:10;;;;;;;1.00;1.00;;;9.00;99.90;;;;;;5036427;28;20214;-42
2023/12/24 08:25:37;;;;;;;0.73;0.73;;;9.00;99.90;;;;;;5018630;28;20178;-43
2023/12/24 08:28:05;;;;;;;0.60;0.60;;;9.00;99.90;;;;;;5042677;28;20190;-43
2023/12/24 08:30:31;;;;;;;0.50;0.40;;;9.00;99.90;;;;;;5043112;28;20177;-43
2023/12/24 08:32:57;;;;;;;0.47;0.47;;;9.10;99.90;;;;;;5059073;28;20256;-44
2023/12/24 08:35:23;;;;;;;0.70;0.50;;;9.10;99.90;;;;;;5033982;28;20184;-43
2023/12/24 08:37:49;;;;;;;0.57;0.40;;;9.10;99.90;;;;;;5026857;28;20225;-44
2023/12/24 08:40:14;;;;;;;2.40;0.90;;;9.10;99.90;;;;;;5034619;28;20207;-44
2023/12/24 08:42:40;;;;;;;0.60;0.60;;;9.10;99.90;;;;;;5034141;28;20283;-44
2023/12/24 08:45:07;;;;;;;0.50;0.43;;;9.10;99.90;;;;;;5035118;28;20191;-44
2023/12/24 08:47:33;;;;;;;0.60;0.60;;;9.10;99.90;;;;;;5049524;28;20285;-43
2023/12/24 08:49:59;;;;;;;0.87;0.63;;;9.20;99.90;;;;;;5029805;28;20276;-44
2023/12/24 08:52:26;;;;;;;0.73;0.50;;;9.20;99.90;;;;;;5052491;28;20228;-42
2023/12/24 08:54:52;;;;;;;0.30;0.30;;;9.20;99.90;;;;;;5039811;28;20186;-44
2023/12/24 08:57:18;;;;;;;0.57;0.50;;;9.20;99.90;;;;;;5028825;28;20177;-43
2023/12/24 08:59:47;;;;;;;0.70;0.70;;;9.30;99.90;;;;;;5022359;28;20200;-38
2023/12/24 09:02:21;;;;;;;0.60;0.60;;;9.30;99.90;;;;;;5041989;28;20210;-41
2023/12/24 09:04:49;;;;;;;0.40;0.40;;;9.30;99.90;;;;;;5040867;28;20201;-41
2023/12/24 09:07:19;;;;;;;0.80;0.70;;;9.30;99.90;;;;;;5035279;28;20217;-44
2023/12/24 09:09:45;;;;;;;0.50;0.50;;;9.30;99.90;;;;;;5027845;28;20171;-44
2023/12/24 09:12:11;;;;;;;0.53;0.53;;;9.30;99.90;;;;;;5024143;28;20199;-43
2023/12/24 09:14:36;;;;;;;0.40;0.40;;;9.40;99.90;;;;;;5041341;28;20182;-44
2023/12/24 09:17:03;;;;;;;0.57;0.50;;;9.40;99.90;;;;;;5031038;28;20193;-41
2023/12/24 09:19:28;;;;;;;0.80;0.80;;;9.40;99.90;;;;;;5030130;28;20188;-44
2023/12/24 09:21:55;;;;;;;0.70;0.70;;;9.40;99.90;;;;;;5029169;28;20209;-41
2023/12/24 09:24:21;;;;;;;1.20;1.00;;;9.40;99.90;;;;;;5025528;28;20193;-43
2023/12/24 09:26:47;;;;;;;1.40;1.20;;;9.40;99.90;;;;;;5036340;28;20225;-44
2023/12/24 09:29:20;;;;;;;1.20;0.93;;;9.40;99.90;;;;;;5023902;28;20263;-43
2023/12/24 09:31:47;;;;;;;2.90;2.13;;;9.50;99.90;;;;;;5036663;28;20201;-44
2023/12/24 09:34:12;;;;;;;1.67;1.30;;;9.50;99.90;;;;;;5025565;28;20183;-41
2023/12/24 09:36:38;;;;;;;1.00;0.90;;;9.50;99.90;;;;;;5038601;28;20189;-43
2023/12/24 09:39:04;;;;;;;2.97;1.63;;;9.50;99.90;;;;;;5032677;28;20221;-41
2023/12/24 09:41:31;;;;;;;2.90;1.70;;;9.50;99.90;;;;;;5026977;28;20319;-44
2023/12/24 09:43:57;;;;;;;2.47;1.37;;;9.60;99.90;;;;;;5029101;28;20198;-43
2023/12/24 09:46:24;;;;;;;2.27;1.70;;;9.50;99.90;;;;;;5034608;28;20222;-44
2023/12/24 09:48:51;;;;;;;1.70;0.87;;;9.60;99.90;;;;;;5033266;28;20196;-44
2023/12/24 09:51:18;;;;;;;0.63;0.60;;;9.60;99.90;;;;;;5028194;28;20236;-44
2023/12/24 09:53:48;;;;;;;1.10;0.90;;;9.60;99.90;;;;;;5039693;28;20178;-39
2023/12/24 09:56:15;;;;;;;1.70;1.30;;;9.70;99.90;;;;;;5037112;28;20213;-44
2023/12/24 09:58:43;;;;;;;2.10;1.77;;;9.70;99.90;;;;;;5030949;28;20239;-43
2023/12/24 10:01:12;;;;;;;2.57;1.80;;;9.70;99.90;;;;;;5036481;28;20183;-44
2023/12/24 10:03:39;;;;;;;2.30;1.20;;;9.70;99.90;;;;;;5018264;28;20238;-41
2023/12/24 10:06:08;;;;;;;0.40;0.40;;;9.70;99.90;;;;;;5026140;28;20213;-42
2023/12/24 10:08:35;;;;;;;0.60;0.60;;;9.70;99.90;;;;;;5035643;28;20187;-42
2023/12/24 10:11:13;;;;;;;0.80;0.80;;;9.70;99.90;;;;;;5029380;28;20192;-41
2023/12/24 10:13:40;;;;;;;0.60;0.60;;;9.70;99.90;;;;;;5023191;28;20181;-43
2023/12/24 10:16:07;;;;;;;0.67;0.63;;;9.70;99.90;;;;;;5039077;28;20218;-44
2023/12/24 10:18:33;;;;;;;0.50;0.50;;;9.80;99.90;;;;;;5031208;28;20271;-44
2023/12/24 10:21:08;;;;;;;0.57;0.57;;;9.80;99.90;;;;;;5039161;28;20184;-43
2023/12/24 10:23:36;;;;;;;1.17;0.57;;;9.80;99.90;;;;;;5027048;28;20205;-44
2023/12/24 10:26:08;;;;;;;0.50;0.50;;;9.80;99.90;;;;;;5038776;28;20272;-44
2023/12/24 10:28:48;;;;;;;1.37;0.57;;;9.80;99.90;;;;;;5038614;28;20203;-43
2023/12/24 10:31:15;;;;;;;1.20;0.63;;;9.90;99.90;;;;;;5032423;28;20181;-44
2023/12/24 10:33:43;;;;;;;1.00;0.90;;;9.80;99.90;;;;;;5035462;28;20184;-43
2023/12/24 10:36:09;;;;;;;0.70;0.53;;;9.80;99.90;;;;;;5040570;28;20184;-43
2023/12/24 10:38:37;;;;;;;0.97;0.60;;;9.80;99.90;;;;;;5031433;28;20191;-34
2023/12/24 10:41:06;;;;;;;0.63;0.50;;;9.80;99.90;;;;;;5020004;28;20187;-44
2023/12/24 10:43:32;;;;;;;0.50;0.50;;;9.80;99.90;;;;;;5025789;28;20206;-42
2023/12/24 10:45:57;;;;;;;0.50;0.50;;;9.80;99.90;;;;;;5026849;28;20202;-44
2023/12/24 10:48:24;;;;;;;1.10;0.70;;;9.80;99.90;;;;;;5014867;28;20187;-42
2023/12/24 10:50:50;;;;;;;0.70;0.70;;;9.80;99.90;;;;;;5012181;28;20196;-36
2023/12/24 10:53:16;;;;;;;1.23;0.70;;;9.70;99.90;;;;;;5020041;28;20209;-41
2023/12/24 10:55:57;;;;;;;0.30;0.30;;;9.70;99.90;;;;;;5030800;28;20175;-44
2023/12/24 10:59:02;;;;;;;1.17;1.00;;;9.70;99.90;;;;;;5033672;28;20269;-42
2023/12/24 11:01:28;;;;;;;0.40;0.40;;;9.80;99.90;;;;;;5024890;28;20207;-44
2023/12/24 11:03:57;;;;;;;1.20;0.83;;;9.80;99.90;;;;;;5041318;28;20229;-42
2023/12/24 11:06:41;;;;;;;0.50;0.50;;;9.80;99.90;;;;;;5050127;28;20195;-41
2023/12/24 11:09:29;;;;;;;0.50;0.50;;;9.80;99.90;;;;;;5063851;28;20204;-39
2023/12/24 11:12:00;;;;;;;0.80;0.60;;;9.80;99.90;;;;;;5047468;28;20205;-43
2023/12/24 11:14:50;;;;;;;0.50;0.50;;;9.80;99.90;;;;;;5034822;28;20173;-43
2023/12/24 11:17:41;;;;;;;0.60;0.60;;;9.80;99.90;;;;;;5029536;28;20171;-39
2023/12/24 11:20:18;;;;;;;0.40;0.40;;;9.80;99.90;;;;;;5033401;28;20189;-42
2023/12/24 11:23:06;;;;;;;0.70;0.57;;;9.80;99.90;;;;;;5013053;28;20282;-42
2023/12/24 11:25:42;;;;;;;1.40;1.27;;;9.80;99.90;;;;;;5036755;28;20193;-42
2023/12/24 11:28:12;;;;;;;1.73;0.50;;;9.80;99.90;;;;;;5032868;28;20189;-43
2023/12/24 11:30:50;;;;;;;1.07;0.50;;;9.90;99.90;;;;;;5028304;28;20178;-43
2023/12/24 11:33:28;;;;;;;0.60;0.60;;;9.90;99.90;;;;;;5042999;28;20202;-43
2023/12/24 11:36:05;;;;;;;0.70;0.70;;;9.90;99.90;;;;;;5025756;28;20196;-42
2023/12/24 11:38:34;;;;;;;0.70;0.60;;;9.90;99.90;;;;;;5026385;28;20203;-42
2023/12/24 11:41:08;;;;;;;1.23;0.70;;;9.90;99.90;;;;;;5031068;28;20194;-42
2023/12/24 11:43:55;;;;;;;0.73;0.57;;;9.90;99.90;;;;;;5024634;28;20181;-37
2023/12/24 11:46:30;;;;;;;0.40;0.40;;;9.90;99.90;;;;;;5029619;28;20219;-42
2023/12/24 11:49:06;;;;;;;0.87;0.80;;;9.90;99.90;;;;;;5056047;28;20195;-45
2023/12/24 11:51:35;;;;;;;0.50;0.50;;;9.90;99.90;;;;;;5041034;28;20229;-39
2023/12/24 11:54:05;;;;;;;0.50;0.50;;;9.90;99.90;;;;;;5041291;28;20183;-39
2023/12/24 11:56:32;;;;;;;0.50;0.50;;;10.00;99.90;;;;;;5033138;28;20182;-46
2023/12/24 11:59:03;;;;;;;0.70;0.50;;;9.90;99.90;;;;;;5046954;28;20252;-41
2023/12/24 12:01:35;;;;;;;0.60;0.40;;;10.00;99.90;;;;;;5066932;28;20231;-42
2023/12/24 12:04:02;;;;;;;1.10;0.80;;;10.00;99.90;;;;;;5040823;28;20189;-42
2023/12/24 12:06:29;;;;;;;1.80;0.70;;;10.00;99.90;;;;;;5035308;28;20201;-42
2023/12/24 12:08:58;;;;;;;0.60;0.60;;;10.00;99.90;;;;;;5036589;28;20304;-42
2023/12/24 12:11:24;;;;;;;1.30;1.10;;;10.00;99.90;;;;;;5033728;28;20304;-42
2023/12/24 12:13:50;;;;;;;1.73;1.57;;;10.00;99.90;;;;;;5024314;28;20280;-42
2023/12/24 12:16:16;;;;;;;1.10;0.60;;;9.90;99.90;;;;;;5028193;28;20204;-42
2023/12/24 12:18:45;;;;;;;0.70;0.70;;;10.00;99.90;;;;;;5053223;28;20195;-43
2023/12/24 12:21:12;;;;;;;0.50;0.50;;;10.00;99.90;;;;;;5032130;28;20713;-43
2023/12/24 12:23:39;;;;;;;0.63;0.63;;;10.00;99.90;;;;;;5043797;28;20184;-43
2023/12/24 12:26:07;;;;;;;1.77;1.67;;;9.90;99.90;;;;;;5045776;28;20242;-43
2023/12/24 12:28:36;;;;;;;1.27;0.80;;;9.90;99.90;;;;;;5026848;28;20189;-43
2023/12/24 12:31:03;;;;;;;1.20;1.10;;;9.90;99.90;;;;;;5029905;28;20279;-43
2023/12/24 12:33:29;;;;;;;1.93;1.10;;;9.90;99.90;;;;;;5026541;28;20179;-43
2023/12/24 12:35:55;;;;;;;0.73;0.70;;;9.90;99.90;;;;;;5021253;28;20185;-43
2023/12/24 12:38:22;;;;;;;1.27;0.87;;;9.90;99.90;;;;;;5042420;28;20188;-42
2023/12/24 12:40:50;;;;;;;0.80;0.80;;;9.90;99.90;;;;;;5061852;28;20181;-43
2023/12/24 12:43:17;;;;;;;1.10;0.70;;;9.90;99.90;;;;;;5031885;28;20223;-42
2023/12/24 12:45:43;;;;;;;0.60;0.60;;;9.90;99.90;;;;;;5024910;28;20186;-43
2023/12/24 12:48:09;;;;;;;1.33;0.90;;;9.90;99.90;;;;;;5024870;28;20190;-43
2023/12/24 12:50:35;;;;;;;1.43;0.87;;;9.90;99.90;;;;;;5041975;28;20187;-43
2023/12/24 12:53:01;;;;;;;1.03;0.90;;;9.90;99.90;;;;;;5040581;28;20203;-43
2023/12/24 12:55:29;;;;;;;1.43;1.10;;;9.80;99.90;;;;;;5026261;28;20278;-42
2023/12/24 12:57:56;;;;;;;2.00;1.07;;;9.90;99.90;;;;;;5063283;28;20189;-43